createdAt,value
2022-07-29T00:00:24.641Z,36.95
2022-07-29T00:01:42.251Z,36.82
2022-07-29T00:02:50.292Z,36.82
2022-07-29T00:03:58.984Z,36.79
2022-07-29T00:05:09.869Z,36.59
2022-07-29T00:06:20.143Z,36.63
2022-07-29T00:07:32.040Z,36.67
2022-07-29T00:08:42.895Z,36.54
2022-07-29T00:09:52.539Z,36.49
2022-07-29T00:11:02.235Z,36.53
2022-07-29T00:12:12.168Z,36.46
2022-07-29T00:13:32.187Z,36.53
2022-07-29T00:14:42.082Z,36.46
2022-07-29T00:15:52.131Z,36.31
2022-07-29T00:17:00.921Z,36.48
2022-07-29T00:18:14.042Z,36.64
2022-07-29T00:19:23.710Z,36.51
2022-07-29T00:20:31.689Z,36.36
2022-07-29T00:21:42.096Z,36.37
2022-07-29T00:22:50.212Z,36.47
2022-07-29T00:24:02.148Z,36.42
2022-07-29T00:25:11.982Z,36.46
2022-07-29T00:26:22.474Z,36.50
2022-07-29T00:27:32.806Z,36.48
2022-07-29T00:28:42.338Z,36.57
2022-07-29T00:29:50.202Z,36.56
2022-07-29T00:31:01.343Z,36.43
2022-07-29T00:32:12.740Z,36.50
2022-07-29T00:33:21.009Z,36.64
2022-07-29T00:34:49.199Z,36.67
2022-07-29T00:35:57.441Z,36.68
2022-07-29T00:37:07.856Z,36.70
2022-07-29T00:38:18.844Z,36.67
2022-07-29T00:39:27.522Z,36.83
2022-07-29T00:40:35.850Z,36.88
2022-07-29T00:41:44.435Z,36.83
2022-07-29T00:42:53.421Z,37.03
2022-07-29T00:44:03.068Z,36.94
2022-07-29T00:45:11.413Z,36.97
2022-07-29T00:46:22.539Z,36.94
2022-07-29T00:47:32.528Z,36.91
2022-07-29T00:48:41.267Z,36.90
2022-07-29T00:49:54.035Z,36.63
2022-07-29T00:51:05.254Z,36.44
2022-07-29T00:52:17.048Z,36.38
2022-07-29T00:53:28.827Z,36.21
2022-07-29T00:54:44.575Z,36.06
2022-07-29T00:55:52.911Z,35.80
2022-07-29T00:57:07.010Z,35.89
2022-07-29T00:58:18.043Z,35.95
2022-07-29T00:59:26.409Z,35.75
2022-07-29T01:00:45.660Z,35.67
2022-07-29T01:01:53.242Z,35.67
2022-07-29T01:03:02.163Z,35.40
2022-07-29T01:04:14.863Z,35.35
2022-07-29T01:05:51.622Z,35.38
2022-07-29T01:06:56.569Z,35.31
2022-07-29T01:08:04.958Z,35.07
2022-07-29T01:09:16.272Z,34.76
2022-07-29T01:10:44.002Z,34.37
2022-07-29T01:11:51.543Z,34.13
2022-07-29T01:13:01.607Z,34.03
2022-07-29T01:14:11.878Z,34.03
2022-07-29T01:15:22.644Z,34.10
2022-07-29T01:16:36.815Z,34.26
2022-07-29T01:17:54.993Z,34.21
2022-07-29T01:19:12.021Z,34.32
2022-07-29T01:20:52.983Z,34.43
2022-07-29T01:22:05.654Z,34.52
2022-07-29T01:23:41.241Z,34.51
2022-07-29T01:25:31.387Z,34.36
2022-07-29T01:27:16.339Z,34.39
2022-07-29T01:29:13.336Z,34.36
2022-07-29T01:30:22.116Z,34.23
2022-07-29T01:32:00.627Z,34.18
2022-07-29T01:33:35.101Z,34.18
2022-07-29T01:34:58.146Z,34.34
2022-07-29T01:36:10.307Z,34.26
2022-07-29T01:37:51.984Z,34.29
2022-07-29T01:39:11.635Z,34.11
2022-07-29T01:40:54.874Z,33.95
2022-07-29T01:42:05.697Z,33.86
2022-07-29T01:43:24.661Z,33.66
2022-07-29T01:45:08.954Z,33.69
2022-07-29T01:46:18.285Z,33.38
2022-07-29T01:47:29.106Z,33.05
2022-07-29T01:48:51.113Z,32.66
2022-07-29T01:50:00.568Z,32.25
2022-07-29T01:51:16.812Z,31.89
2022-07-29T01:52:56.087Z,31.56
2022-07-29T01:54:37.599Z,31.18
2022-07-29T01:55:48.269Z,30.81
2022-07-29T01:56:59.055Z,30.63
2022-07-29T01:58:08.274Z,30.45
2022-07-29T01:59:22.741Z,30.30
2022-07-29T02:00:34.004Z,30.14
2022-07-29T02:01:45.631Z,30.03
2022-07-29T02:02:54.226Z,29.89
2022-07-29T02:04:05.299Z,29.81
2022-07-29T02:05:16.162Z,29.69
2022-07-29T02:06:28.291Z,29.57
2022-07-29T02:07:39.221Z,29.48
2022-07-29T02:08:47.719Z,29.39
2022-07-29T02:09:55.545Z,29.30
2022-07-29T02:11:05.544Z,29.21
2022-07-29T02:12:15.142Z,29.12
2022-07-29T02:13:23.428Z,29.08
2022-07-29T02:14:35.869Z,29.02
2022-07-29T02:15:46.517Z,28.95
2022-07-29T02:16:56.454Z,28.86
2022-07-29T02:18:12.696Z,28.83
2022-07-29T02:19:24.241Z,28.77
2022-07-29T02:20:33.407Z,28.70
2022-07-29T02:21:43.418Z,28.67
2022-07-29T02:22:51.340Z,28.64
2022-07-29T02:24:01.050Z,28.64
2022-07-29T02:25:13.698Z,28.64
2022-07-29T02:26:23.747Z,28.62
2022-07-29T02:27:35.354Z,28.58
2022-07-29T02:28:43.445Z,28.57
2022-07-29T02:29:51.606Z,28.58
2022-07-29T02:31:05.696Z,28.58
2022-07-29T02:32:15.182Z,28.57
2022-07-29T02:33:31.050Z,28.56
2022-07-29T02:34:40.902Z,28.52
2022-07-29T02:35:50.591Z,28.48
2022-07-29T02:36:58.832Z,28.43
2022-07-29T02:38:35.267Z,28.36
2022-07-29T02:39:46.517Z,28.23
2022-07-29T02:40:54.534Z,28.11
2022-07-29T02:42:10.723Z,28.02
2022-07-29T02:43:22.620Z,27.92
2022-07-29T02:44:34.695Z,27.84
2022-07-29T02:45:45.533Z,27.78
2022-07-29T02:47:08.368Z,27.70
2022-07-29T02:48:20.595Z,27.62
2022-07-29T02:50:00.580Z,27.57
2022-07-29T02:51:41.478Z,27.48
2022-07-29T02:53:25.598Z,27.39
2022-07-29T02:54:49.322Z,27.34
2022-07-29T02:56:00.643Z,27.29
2022-07-29T02:57:20.430Z,27.25
2022-07-29T02:58:33.135Z,27.19
2022-07-29T02:59:42.978Z,27.14
2022-07-29T03:00:51.231Z,27.08
2022-07-29T03:02:00.919Z,27.04
2022-07-29T03:03:14.149Z,26.98
2022-07-29T03:04:23.598Z,26.92
2022-07-29T03:05:32.815Z,26.89
2022-07-29T03:06:41.999Z,26.84
2022-07-29T03:07:55.957Z,26.80
2022-07-29T03:09:10.465Z,26.77
2022-07-29T03:10:23.631Z,26.72
2022-07-29T03:11:40.091Z,26.66
2022-07-29T03:12:59.288Z,26.61
2022-07-29T03:14:07.875Z,26.55
2022-07-29T03:15:17.816Z,26.49
2022-07-29T03:16:27.589Z,26.44
2022-07-29T03:17:38.981Z,26.40
2022-07-29T03:18:47.700Z,26.36
2022-07-29T03:19:55.544Z,26.34
2022-07-29T03:21:06.324Z,26.30
2022-07-29T03:22:15.692Z,26.26
2022-07-29T03:23:33.210Z,26.22
2022-07-29T03:24:45.404Z,26.18
2022-07-29T03:25:55.798Z,26.14
2022-07-29T03:27:09.062Z,26.12
2022-07-29T03:28:19.543Z,26.09
2022-07-29T03:29:33.408Z,26.07
2022-07-29T03:30:44.581Z,26.07
2022-07-29T03:31:53.729Z,26.04
2022-07-29T03:33:13.258Z,26.02
2022-07-29T03:34:23.604Z,25.98
2022-07-29T03:35:34.914Z,25.96
2022-07-29T03:36:42.979Z,25.93
2022-07-29T03:37:52.500Z,25.91
2022-07-29T03:39:03.813Z,25.88
2022-07-29T03:40:13.866Z,25.86
2022-07-29T03:41:23.054Z,25.84
2022-07-29T03:42:36.176Z,25.83
2022-07-29T03:43:49.474Z,25.81
2022-07-29T03:44:58.596Z,25.80
2022-07-29T03:46:10.108Z,25.78
2022-07-29T03:47:21.476Z,25.76
2022-07-29T03:48:36.734Z,25.74
2022-07-29T03:49:45.852Z,25.71
2022-07-29T03:50:53.950Z,25.70
2022-07-29T03:52:06.258Z,25.70
2022-07-29T03:53:16.484Z,25.70
2022-07-29T03:54:25.787Z,25.68
2022-07-29T03:55:37.149Z,25.68
2022-07-29T03:56:48.842Z,25.66
2022-07-29T03:57:57.332Z,25.66
2022-07-29T03:59:08.698Z,25.63
2022-07-29T04:00:18.301Z,25.62
2022-07-29T04:01:29.599Z,25.62
2022-07-29T04:02:40.639Z,25.61
2022-07-29T04:03:48.831Z,25.59
2022-07-29T04:04:57.105Z,25.58
2022-07-29T04:06:08.603Z,25.57
2022-07-29T04:07:19.583Z,25.55
2022-07-29T04:08:27.901Z,25.55
2022-07-29T04:09:38.757Z,25.53
2022-07-29T04:10:46.697Z,25.53
2022-07-29T04:12:01.466Z,25.53
2022-07-29T04:13:13.774Z,25.51
2022-07-29T04:14:23.075Z,25.49
2022-07-29T04:15:33.389Z,25.46
2022-07-29T04:16:41.372Z,25.45
2022-07-29T04:17:51.603Z,25.42
2022-07-29T04:18:59.917Z,25.40
2022-07-29T04:20:08.942Z,25.38
2022-07-29T04:21:18.049Z,25.36
2022-07-29T04:22:29.056Z,25.34
2022-07-29T04:23:52.813Z,25.33
2022-07-29T04:25:04.404Z,25.30
2022-07-29T04:26:14.886Z,25.28
2022-07-29T04:27:26.166Z,25.26
2022-07-29T04:28:37.087Z,25.22
2022-07-29T04:29:57.394Z,25.21
2022-07-29T04:31:09.731Z,25.17
2022-07-29T04:32:20.491Z,25.14
2022-07-29T04:33:28.867Z,25.11
2022-07-29T04:34:37.418Z,25.09
2022-07-29T04:35:50.207Z,25.07
2022-07-29T04:37:02.927Z,25.06
2022-07-29T04:38:15.609Z,25.04
2022-07-29T04:39:30.594Z,25.01
2022-07-29T04:40:38.805Z,24.99
2022-07-29T04:41:49.058Z,24.96
2022-07-29T04:42:56.994Z,24.93
2022-07-29T04:44:08.927Z,24.91
2022-07-29T04:45:16.922Z,24.89
2022-07-29T04:46:33.472Z,24.85
2022-07-29T04:47:43.443Z,24.80
2022-07-29T04:48:51.616Z,24.76
2022-07-29T04:49:59.841Z,24.74
2022-07-29T04:51:10.288Z,24.70
2022-07-29T04:52:21.023Z,24.66
2022-07-29T04:53:29.113Z,24.63
2022-07-29T04:54:37.541Z,24.60
2022-07-29T04:55:46.394Z,24.56
2022-07-29T04:56:54.159Z,24.53
2022-07-29T04:58:02.181Z,24.51
2022-07-29T04:59:13.828Z,24.49
2022-07-29T05:00:22.384Z,24.47
2022-07-29T05:01:43.914Z,24.44
2022-07-29T05:02:52.219Z,24.43
2022-07-29T05:04:02.794Z,24.40
2022-07-29T05:05:13.532Z,24.38
2022-07-29T05:06:24.556Z,24.36
2022-07-29T05:07:33.725Z,24.35
2022-07-29T05:08:43.419Z,24.32
2022-07-29T05:09:50.947Z,24.30
2022-07-29T05:10:59.156Z,24.29
2022-07-29T05:12:23.073Z,24.27
2022-07-29T05:13:45.341Z,24.26
2022-07-29T05:14:56.097Z,24.25
2022-07-29T05:16:04.587Z,24.23
2022-07-29T05:17:13.711Z,24.22
2022-07-29T05:18:26.229Z,24.20
2022-07-29T05:19:34.854Z,24.17
2022-07-29T05:20:49.143Z,24.16
2022-07-29T05:21:57.610Z,24.15
2022-07-29T05:23:06.207Z,24.14
2022-07-29T05:24:15.162Z,24.13
2022-07-29T05:25:43.872Z,24.11
2022-07-29T05:26:53.646Z,24.08
2022-07-29T05:28:02.360Z,24.04
2022-07-29T05:29:44.775Z,24.02
2022-07-29T05:30:43.630Z,23.97
2022-07-29T05:31:51.638Z,23.96
2022-07-29T05:32:59.700Z,23.93
2022-07-29T05:34:08.716Z,23.90
2022-07-29T05:35:19.727Z,23.86
2022-07-29T05:36:27.803Z,23.83
2022-07-29T05:37:36.466Z,23.80
2022-07-29T05:38:44.113Z,23.76
2022-07-29T05:39:56.559Z,23.74
2022-07-29T05:41:05.696Z,23.71
2022-07-29T05:42:16.297Z,23.69
2022-07-29T05:43:26.349Z,23.67
2022-07-29T05:44:39.115Z,23.63
2022-07-29T05:45:49.330Z,23.59
2022-07-29T05:47:00.015Z,23.57
2022-07-29T05:48:08.346Z,23.53
2022-07-29T05:49:26.807Z,23.49
2022-07-29T05:50:44.279Z,23.44
2022-07-29T05:51:56.949Z,23.40
2022-07-29T05:53:18.857Z,23.36
2022-07-29T05:54:31.743Z,23.30
2022-07-29T05:55:42.987Z,23.26
2022-07-29T05:56:55.332Z,23.21
2022-07-29T05:58:03.835Z,23.18
2022-07-29T05:59:18.182Z,23.14
2022-07-29T06:00:27.943Z,23.10
2022-07-29T06:01:42.192Z,23.07
2022-07-29T06:02:50.186Z,23.02
2022-07-29T06:03:58.394Z,22.97
2022-07-29T06:05:06.455Z,22.93
2022-07-29T06:06:23.629Z,22.89
2022-07-29T06:07:35.364Z,22.86
2022-07-29T06:08:45.808Z,22.84
2022-07-29T06:09:54.275Z,22.81
2022-07-29T06:11:04.292Z,22.78
2022-07-29T06:12:13.294Z,22.74
2022-07-29T06:13:23.514Z,22.71
2022-07-29T06:14:34.485Z,22.69
2022-07-29T06:15:45.109Z,22.66
2022-07-29T06:16:53.484Z,22.63
2022-07-29T06:18:02.486Z,22.59
2022-07-29T06:19:14.068Z,22.55
2022-07-29T06:20:24.330Z,22.50
2022-07-29T06:21:42.157Z,22.46
2022-07-29T06:22:50.218Z,22.43
2022-07-29T06:23:59.373Z,22.39
2022-07-29T06:25:10.372Z,22.36
2022-07-29T06:26:30.741Z,22.33
2022-07-29T06:27:41.276Z,22.30
2022-07-29T06:28:49.885Z,22.26
2022-07-29T06:29:59.246Z,22.23
2022-07-29T06:31:10.284Z,22.21
2022-07-29T06:32:19.307Z,22.19
2022-07-29T06:33:33.315Z,22.17
2022-07-29T06:34:42.242Z,22.14
2022-07-29T06:35:53.648Z,22.10
2022-07-29T06:37:08.562Z,22.06
2022-07-29T06:38:25.183Z,22.04
2022-07-29T06:39:41.760Z,22.01
2022-07-29T06:41:06.240Z,21.95
2022-07-29T06:42:16.442Z,21.91
2022-07-29T06:43:24.680Z,21.87
2022-07-29T06:44:36.807Z,21.84
2022-07-29T06:45:46.501Z,21.81
2022-07-29T06:46:56.052Z,21.77
2022-07-29T06:48:04.362Z,21.74
2022-07-29T06:49:15.972Z,21.71
2022-07-29T06:50:26.336Z,21.68
2022-07-29T06:51:37.006Z,21.66
2022-07-29T06:52:46.921Z,21.63
2022-07-29T06:53:59.632Z,21.62
2022-07-29T06:55:12.107Z,21.60
2022-07-29T06:56:38.299Z,21.58
2022-07-29T06:57:49.568Z,21.55
2022-07-29T06:59:01.574Z,21.52
2022-07-29T07:00:14.448Z,21.51
2022-07-29T07:01:24.502Z,21.49
2022-07-29T07:02:34.113Z,21.46
2022-07-29T07:03:46.142Z,21.45
2022-07-29T07:04:54.319Z,21.41
2022-07-29T07:06:02.883Z,21.38
2022-07-29T07:07:13.446Z,21.36
2022-07-29T07:08:23.414Z,21.35
2022-07-29T07:09:40.340Z,21.33
2022-07-29T07:10:50.869Z,21.30
2022-07-29T07:11:58.892Z,21.29
2022-07-29T07:13:07.364Z,21.25
2022-07-29T07:14:16.558Z,21.23
2022-07-29T07:15:38.531Z,21.20
2022-07-29T07:16:50.268Z,21.18
2022-07-29T07:18:01.179Z,21.16
2022-07-29T07:19:09.203Z,21.13
2022-07-29T07:20:17.193Z,21.09
2022-07-29T07:21:27.278Z,21.07
2022-07-29T07:22:41.806Z,21.04
2022-07-29T07:23:53.908Z,21.01
2022-07-29T07:25:02.661Z,20.97
2022-07-29T07:26:14.187Z,20.95
2022-07-29T07:27:23.292Z,20.92
2022-07-29T07:28:35.481Z,20.89
2022-07-29T07:29:44.825Z,20.85
2022-07-29T07:30:53.425Z,20.82
2022-07-29T07:32:01.538Z,20.83
2022-07-29T07:33:12.172Z,20.84
2022-07-29T07:34:28.274Z,20.84
2022-07-29T07:35:38.772Z,20.83
2022-07-29T07:36:48.705Z,20.82
2022-07-29T07:37:59.528Z,20.80
2022-07-29T07:39:08.287Z,20.80
2022-07-29T07:40:19.306Z,20.79
2022-07-29T07:41:27.765Z,20.79
2022-07-29T07:42:43.041Z,20.78
2022-07-29T07:43:56.554Z,20.78
2022-07-29T07:45:16.108Z,20.78
2022-07-29T07:46:30.083Z,20.77
2022-07-29T07:47:41.813Z,20.75
2022-07-29T07:48:50.403Z,20.73
2022-07-29T07:49:58.332Z,20.70
2022-07-29T07:51:07.649Z,20.68
2022-07-29T07:52:19.977Z,20.65
2022-07-29T07:53:28.170Z,20.65
2022-07-29T07:54:37.305Z,20.61
2022-07-29T07:56:09.298Z,20.57
2022-07-29T07:57:19.877Z,20.49
2022-07-29T07:58:28.227Z,20.45
2022-07-29T07:59:37.115Z,20.41
2022-07-29T08:00:47.043Z,20.37
2022-07-29T08:01:56.880Z,20.36
2022-07-29T08:03:05.521Z,20.33
2022-07-29T08:04:29.144Z,20.27
2022-07-29T08:05:39.448Z,20.26
2022-07-29T08:06:52.914Z,20.23
2022-07-29T08:08:00.736Z,20.20
2022-07-29T08:09:28.275Z,20.16
2022-07-29T08:10:56.116Z,20.09
2022-07-29T08:12:08.600Z,20.03
2022-07-29T08:13:17.269Z,20.00
2022-07-29T08:14:27.223Z,19.96
2022-07-29T08:15:37.577Z,19.92
2022-07-29T08:16:49.864Z,19.89
2022-07-29T08:17:57.934Z,19.85
2022-07-29T08:19:06.063Z,19.82
2022-07-29T08:20:16.913Z,19.81
2022-07-29T08:21:27.145Z,19.81
2022-07-29T08:22:37.022Z,19.81
2022-07-29T08:23:56.153Z,19.80
2022-07-29T08:25:08.128Z,19.80
2022-07-29T08:26:17.332Z,19.79
2022-07-29T08:27:44.431Z,19.78
2022-07-29T08:28:54.080Z,19.75
2022-07-29T08:30:02.231Z,19.74
2022-07-29T08:31:10.156Z,19.76
2022-07-29T08:32:37.166Z,19.77
2022-07-29T08:33:49.832Z,19.78
2022-07-29T08:34:58.098Z,19.79
2022-07-29T08:36:06.166Z,19.80
2022-07-29T08:37:15.494Z,19.81
2022-07-29T08:38:25.757Z,19.82
2022-07-29T08:39:34.970Z,19.84
2022-07-29T08:40:44.644Z,19.84
2022-07-29T08:41:57.505Z,19.85
2022-07-29T08:43:14.211Z,19.85
2022-07-29T08:44:30.483Z,19.84
2022-07-29T08:45:54.419Z,19.81
2022-07-29T08:47:02.479Z,19.78
2022-07-29T08:48:15.788Z,19.76
2022-07-29T08:49:25.346Z,19.76
2022-07-29T08:50:34.828Z,19.76
2022-07-29T08:51:49.596Z,19.75
2022-07-29T08:53:00.412Z,19.74
2022-07-29T08:54:09.857Z,19.72
2022-07-29T08:55:21.517Z,19.73
2022-07-29T08:56:31.681Z,19.74
2022-07-29T08:57:54.126Z,19.75
2022-07-29T08:59:08.737Z,19.75
2022-07-29T09:00:21.696Z,19.75
2022-07-29T09:01:36.090Z,19.74
2022-07-29T09:02:54.604Z,19.72
2022-07-29T09:04:03.727Z,19.72
2022-07-29T09:05:14.541Z,19.70
2022-07-29T09:06:24.379Z,19.65
2022-07-29T09:07:35.050Z,19.62
2022-07-29T09:08:44.767Z,19.61
2022-07-29T09:09:55.689Z,19.59
2022-07-29T09:11:07.709Z,19.55
2022-07-29T09:12:28.643Z,19.52
2022-07-29T09:13:38.299Z,19.47
2022-07-29T09:14:49.622Z,19.45
2022-07-29T09:16:01.769Z,19.45
2022-07-29T09:17:11.872Z,19.43
2022-07-29T09:18:49.436Z,19.43
2022-07-29T09:19:58.080Z,19.40
2022-07-29T09:21:26.014Z,19.38
2022-07-29T09:22:40.065Z,19.34
2022-07-29T09:24:09.639Z,19.29
2022-07-29T09:25:35.412Z,19.26
2022-07-29T09:26:46.011Z,19.22
2022-07-29T09:27:56.225Z,19.19
2022-07-29T09:29:12.552Z,19.16
2022-07-29T09:30:28.347Z,19.13
2022-07-29T09:31:42.757Z,19.11
2022-07-29T09:33:03.845Z,19.10
2022-07-29T09:34:15.601Z,19.09
2022-07-29T09:35:27.801Z,19.07
2022-07-29T09:36:48.060Z,19.06
2022-07-29T09:37:57.450Z,19.04
2022-07-29T09:39:07.352Z,19.02
2022-07-29T09:40:23.285Z,19.01
2022-07-29T09:41:33.925Z,19.00
2022-07-29T09:42:43.819Z,18.99
2022-07-29T09:44:02.186Z,18.98
2022-07-29T09:45:10.397Z,18.97
2022-07-29T09:46:20.039Z,18.97
2022-07-29T09:47:44.475Z,18.97
2022-07-29T09:49:16.236Z,18.94
2022-07-29T09:50:28.643Z,18.91
2022-07-29T09:51:38.599Z,18.89
2022-07-29T09:52:58.637Z,18.88
2022-07-29T09:54:31.176Z,18.88
2022-07-29T09:55:54.348Z,18.88
2022-07-29T09:57:02.580Z,18.88
2022-07-29T09:58:25.370Z,18.87
2022-07-29T09:59:35.396Z,18.90
2022-07-29T10:00:47.225Z,18.93
2022-07-29T10:01:57.526Z,18.94
2022-07-29T10:03:06.002Z,18.95
2022-07-29T10:04:14.319Z,18.96
2022-07-29T10:05:36.512Z,18.99
2022-07-29T10:07:08.324Z,19.01
2022-07-29T10:08:16.686Z,19.05
2022-07-29T10:09:25.099Z,19.09
2022-07-29T10:10:42.074Z,19.12
2022-07-29T10:12:07.675Z,19.14
2022-07-29T10:13:19.629Z,19.14
2022-07-29T10:14:27.996Z,19.15
2022-07-29T10:15:45.174Z,19.16
2022-07-29T10:16:54.580Z,19.17
2022-07-29T10:18:02.704Z,19.17
2022-07-29T10:19:11.018Z,19.17
2022-07-29T10:20:21.854Z,19.18
2022-07-29T10:21:35.845Z,19.18
2022-07-29T10:22:54.173Z,19.17
2022-07-29T10:24:03.234Z,19.16
2022-07-29T10:25:13.005Z,19.15
2022-07-29T10:26:24.682Z,19.16
2022-07-29T10:27:35.087Z,19.17
2022-07-29T10:28:43.308Z,19.17
2022-07-29T10:29:55.780Z,19.17
2022-07-29T10:31:06.458Z,19.18
2022-07-29T10:32:31.918Z,19.17
2022-07-29T10:34:06.111Z,19.17
2022-07-29T10:35:52.698Z,19.16
2022-07-29T10:37:21.520Z,19.14
2022-07-29T10:38:48.149Z,19.13
2022-07-29T10:40:37.655Z,19.10
2022-07-29T10:42:29.629Z,19.09
2022-07-29T10:43:51.492Z,19.06
2022-07-29T10:45:00.426Z,19.05
2022-07-29T10:46:08.689Z,19.03
2022-07-29T10:47:28.520Z,19.02
2022-07-29T10:48:37.856Z,19.02
2022-07-29T10:50:01.385Z,19.01
2022-07-29T10:51:11.837Z,19.01
2022-07-29T10:52:26.628Z,19.01
2022-07-29T10:53:55.303Z,19.01
2022-07-29T10:55:05.113Z,18.99
2022-07-29T10:56:30.865Z,18.99
2022-07-29T10:57:54.459Z,19.00
2022-07-29T10:59:32.257Z,19.01
2022-07-29T11:00:45.733Z,19.02
2022-07-29T11:02:10.854Z,19.01
2022-07-29T11:03:53.625Z,19.01
2022-07-29T11:05:02.995Z,18.99
2022-07-29T11:06:15.299Z,18.97
2022-07-29T11:07:25.163Z,18.95
2022-07-29T11:09:34.901Z,18.92
2022-07-29T11:10:46.986Z,18.90
2022-07-29T11:11:58.488Z,18.90
2022-07-29T11:13:09.121Z,18.92
2022-07-29T11:14:20.402Z,18.91
2022-07-29T11:15:56.815Z,18.89
2022-07-29T11:17:09.899Z,18.87
2022-07-29T11:18:24.852Z,18.86
2022-07-29T11:19:35.827Z,18.86
2022-07-29T11:20:50.090Z,18.85
2022-07-29T11:21:58.803Z,18.84
2022-07-29T11:23:33.976Z,18.83
2022-07-29T11:24:50.213Z,18.84
2022-07-29T11:26:23.669Z,18.83
2022-07-29T11:27:43.091Z,18.81
2022-07-29T11:29:01.041Z,18.81
2022-07-29T11:30:19.960Z,18.82
2022-07-29T11:31:46.487Z,18.83
2022-07-29T11:32:55.712Z,18.83
2022-07-29T11:34:27.964Z,18.83
2022-07-29T11:35:41.327Z,18.82
2022-07-29T11:37:17.748Z,18.82
2022-07-29T11:38:31.931Z,18.80
2022-07-29T11:39:49.153Z,18.80
2022-07-29T11:41:22.092Z,18.79
2022-07-29T11:42:32.282Z,18.78
2022-07-29T11:43:54.795Z,18.78
2022-07-29T11:45:44.412Z,18.78
2022-07-29T11:46:54.680Z,18.77
2022-07-29T11:48:29.197Z,18.77
2022-07-29T11:49:34.468Z,18.76
2022-07-29T11:50:48.611Z,18.78
2022-07-29T11:51:59.595Z,18.79
2022-07-29T11:53:16.228Z,18.79
2022-07-29T11:54:57.088Z,18.78
2022-07-29T11:56:05.204Z,18.78
2022-07-29T11:57:15.541Z,18.78
2022-07-29T11:58:28.269Z,18.79
2022-07-29T11:59:44.565Z,18.80
2022-07-29T12:00:56.463Z,18.80
2022-07-29T12:02:36.475Z,18.79
2022-07-29T12:03:37.361Z,18.79
2022-07-29T12:04:59.385Z,18.78
2022-07-29T12:06:20.981Z,18.74
2022-07-29T12:07:36.398Z,18.66
2022-07-29T12:08:46.209Z,18.60
2022-07-29T12:09:58.210Z,18.53
2022-07-29T12:11:06.495Z,18.47
2022-07-29T12:12:15.593Z,18.44
2022-07-29T12:13:37.036Z,18.42
2022-07-29T12:14:51.025Z,18.38
2022-07-29T12:16:03.006Z,18.36
2022-07-29T12:17:11.479Z,18.32
2022-07-29T12:18:24.159Z,18.27
2022-07-29T12:19:34.726Z,18.23
2022-07-29T12:20:43.713Z,18.20
2022-07-29T12:22:02.182Z,18.17
2022-07-29T12:23:12.020Z,18.13
2022-07-29T12:24:22.673Z,18.09
2022-07-29T12:25:43.487Z,18.06
2022-07-29T12:26:55.722Z,18.04
2022-07-29T12:28:06.776Z,18.02
2022-07-29T12:29:33.908Z,18.02
2022-07-29T12:30:55.353Z,18.02
2022-07-29T12:32:06.670Z,18.01
2022-07-29T12:33:26.738Z,17.98
2022-07-29T12:34:36.398Z,17.96
2022-07-29T12:35:58.068Z,17.97
2022-07-29T12:37:13.067Z,18.00
2022-07-29T12:38:22.183Z,18.02
2022-07-29T12:39:33.954Z,18.04
2022-07-29T12:40:42.510Z,18.06
2022-07-29T12:41:51.114Z,18.07
2022-07-29T12:43:21.399Z,18.07
2022-07-29T12:44:51.088Z,18.09
2022-07-29T12:46:01.456Z,18.08
2022-07-29T12:47:10.333Z,18.08
2022-07-29T12:48:19.177Z,18.08
2022-07-29T12:49:28.758Z,18.08
2022-07-29T12:50:38.337Z,18.09
2022-07-29T12:51:48.465Z,18.10
2022-07-29T12:52:56.993Z,18.10
2022-07-29T12:54:19.298Z,18.11
2022-07-29T12:55:53.201Z,18.13
2022-07-29T12:57:02.632Z,18.12
2022-07-29T12:58:10.746Z,18.09
2022-07-29T12:59:26.926Z,18.08
2022-07-29T13:00:35.856Z,18.08
2022-07-29T13:01:47.401Z,18.06
2022-07-29T13:02:59.748Z,18.04
2022-07-29T13:04:07.981Z,18.02
2022-07-29T13:05:19.133Z,18.01
2022-07-29T13:06:49.661Z,18.00
2022-07-29T13:08:22.281Z,17.97
2022-07-29T13:09:44.974Z,17.95
2022-07-29T13:10:55.714Z,17.92
2022-07-29T13:12:05.578Z,17.90
2022-07-29T13:13:18.885Z,17.90
2022-07-29T13:14:35.081Z,17.92
2022-07-29T13:15:52.593Z,17.91
2022-07-29T13:17:04.871Z,17.92
2022-07-29T13:18:36.500Z,17.92
2022-07-29T13:19:47.719Z,17.94
2022-07-29T13:20:58.307Z,17.93
2022-07-29T13:22:07.339Z,17.92
2022-07-29T13:23:15.673Z,17.93
2022-07-29T13:24:26.176Z,17.94
2022-07-29T13:25:37.006Z,17.97
2022-07-29T13:26:46.331Z,18.00
2022-07-29T13:27:57.195Z,18.04
2022-07-29T13:29:05.823Z,18.05
2022-07-29T13:30:14.767Z,18.07
2022-07-29T13:31:23.661Z,18.09
2022-07-29T13:32:34.472Z,18.12
2022-07-29T13:33:45.331Z,18.13
2022-07-29T13:34:54.268Z,18.15
2022-07-29T13:36:05.123Z,18.17
2022-07-29T13:37:13.413Z,18.16
2022-07-29T13:38:22.065Z,18.18
2022-07-29T13:39:40.529Z,18.25
2022-07-29T13:40:51.496Z,18.32
2022-07-29T13:42:04.439Z,18.36
2022-07-29T13:43:15.549Z,18.37
2022-07-29T13:44:26.845Z,18.40
2022-07-29T13:45:37.396Z,18.41
2022-07-29T13:46:46.669Z,18.38
2022-07-29T13:47:56.384Z,18.38
2022-07-29T13:49:10.109Z,18.40
2022-07-29T13:50:18.841Z,18.42
2022-07-29T13:51:29.301Z,18.42
2022-07-29T13:52:38.364Z,18.42
2022-07-29T13:53:46.782Z,18.41
2022-07-29T13:54:59.059Z,18.41
2022-07-29T13:56:10.425Z,18.40
2022-07-29T13:57:21.884Z,18.38
2022-07-29T13:58:30.777Z,18.39
2022-07-29T13:59:42.027Z,18.38
2022-07-29T14:00:52.465Z,18.38
2022-07-29T14:02:01.743Z,18.41
2022-07-29T14:03:10.004Z,18.51
2022-07-29T14:04:18.213Z,18.61
2022-07-29T14:05:28.808Z,18.66
2022-07-29T14:06:36.855Z,18.70
2022-07-29T14:07:51.113Z,18.74
2022-07-29T14:09:00.893Z,18.77
2022-07-29T14:10:09.846Z,18.78
2022-07-29T14:11:17.719Z,18.79
2022-07-29T14:12:28.105Z,18.79
2022-07-29T14:13:36.785Z,18.80
2022-07-29T14:14:47.156Z,18.81
2022-07-29T14:15:56.504Z,18.83
2022-07-29T14:17:06.035Z,18.83
2022-07-29T14:18:14.395Z,18.84
2022-07-29T14:19:24.019Z,18.88
2022-07-29T14:20:35.694Z,18.93
2022-07-29T14:21:46.149Z,18.94
2022-07-29T14:22:55.763Z,18.92
2022-07-29T14:24:03.922Z,18.93
2022-07-29T14:25:32.318Z,19.00
2022-07-29T14:26:46.402Z,19.06
2022-07-29T14:27:58.635Z,19.12
2022-07-29T14:29:07.041Z,19.20
2022-07-29T14:30:15.223Z,19.28
2022-07-29T14:31:26.593Z,19.32
2022-07-29T14:32:37.209Z,19.41
2022-07-29T14:33:49.157Z,19.51
2022-07-29T14:35:01.725Z,19.64
2022-07-29T14:36:10.431Z,19.80
2022-07-29T14:37:18.319Z,19.99
2022-07-29T14:38:28.832Z,20.18
2022-07-29T14:39:43.187Z,20.27
2022-07-29T14:40:55.517Z,20.31
2022-07-29T14:42:05.507Z,20.31
2022-07-29T14:43:13.612Z,20.32
2022-07-29T14:44:22.198Z,20.32
2022-07-29T14:45:34.087Z,20.35
2022-07-29T14:46:45.210Z,20.32
2022-07-29T14:48:01.330Z,20.37
2022-07-29T14:49:09.505Z,20.43
2022-07-29T14:50:18.332Z,20.49
2022-07-29T14:51:36.662Z,20.54
2022-07-29T14:52:46.566Z,20.56
2022-07-29T14:53:56.688Z,20.56
2022-07-29T14:55:16.439Z,20.62
2022-07-29T14:56:37.267Z,20.74
2022-07-29T14:57:46.590Z,20.87
2022-07-29T14:58:55.590Z,20.97
2022-07-29T15:00:05.576Z,21.18
2022-07-29T15:01:13.706Z,21.44
2022-07-29T15:02:25.623Z,21.66
2022-07-29T15:03:46.417Z,21.94
2022-07-29T15:04:55.074Z,22.27
2022-07-29T15:06:07.137Z,22.72
2022-07-29T15:07:15.699Z,23.01
2022-07-29T15:08:25.616Z,23.06
2022-07-29T15:09:36.305Z,23.03
2022-07-29T15:10:55.097Z,23.05
2022-07-29T15:12:05.463Z,22.93
2022-07-29T15:13:13.765Z,22.82
2022-07-29T15:14:21.905Z,22.79
2022-07-29T15:15:30.504Z,22.80
2022-07-29T15:16:44.055Z,22.88
2022-07-29T15:17:59.307Z,22.90
2022-07-29T15:19:07.593Z,22.87
2022-07-29T15:20:16.408Z,22.86
2022-07-29T15:21:27.032Z,22.90
2022-07-29T15:22:35.858Z,22.99
2022-07-29T15:23:44.954Z,23.18
2022-07-29T15:24:55.667Z,23.31
2022-07-29T15:26:06.398Z,23.47
2022-07-29T15:27:16.803Z,23.92
2022-07-29T15:28:26.962Z,24.41
2022-07-29T15:29:36.385Z,24.89
2022-07-29T15:30:46.499Z,25.41
2022-07-29T15:31:55.738Z,25.71
2022-07-29T15:33:05.551Z,25.78
2022-07-29T15:34:13.656Z,25.99
2022-07-29T15:35:22.080Z,26.39
2022-07-29T15:38:04.384Z,27.03
2022-07-29T15:39:12.737Z,27.08
2022-07-29T15:40:21.196Z,27.04
2022-07-29T15:41:32.025Z,27.05
2022-07-29T15:42:42.273Z,26.98
2022-07-29T15:43:51.287Z,26.83
2022-07-29T15:44:59.603Z,26.70
2022-07-29T15:46:29.306Z,26.83
2022-07-29T15:47:42.985Z,27.17
2022-07-29T15:48:50.901Z,27.38